Time;durP1;ratioP1;P1;durP2;ratioP2;P2;SDS_P1;SDS_P2;PMS_P1;PMS_P2;Temp;Humidity;BMP_temperature;BMP_pressure;BME280_temperature;BME280_humidity;BME280_pressure;Samples;Min_cycle;Max_cycle;Signal;HPM_P1;HPM_P2
2021/09/23 00:00:08;;;;;;;1.48;1.38;;;;;;;14.55;67.71;101210.97;5000516;28;20034;-74
2021/09/23 00:05:15;;;;;;;1.73;1.52;;;;;;;14.49;68.06;101202.69;5018638;28;20030;-72
2021/09/23 00:07:41;;;;;;;1.30;1.20;;;;;;;14.46;67.92;101196.91;5003492;28;20468;-72
2021/09/23 00:10:09;;;;;;;1.10;1.10;;;;;;;14.40;67.96;101198.03;4981424;28;20038;-73
2021/09/23 00:12:35;;;;;;;1.38;1.27;;;;;;;14.38;68.48;101201.00;5019102;28;20021;-73
2021/09/23 00:15:02;;;;;;;1.48;1.17;;;;;;;14.39;67.99;101191.66;4984880;28;20056;-74
2021/09/23 00:17:28;;;;;;;1.63;1.33;;;;;;;14.38;68.22;101195.50;5003722;28;20037;-73
2021/09/23 00:19:53;;;;;;;1.13;1.02;;;;;;;14.35;68.37;101200.75;5005614;28;20029;-73
2021/09/23 00:22:19;;;;;;;1.38;1.30;;;;;;;14.31;68.17;101200.47;5005315;28;20033;-74
2021/09/23 00:24:44;;;;;;;1.60;1.50;;;;;;;14.28;68.32;101190.84;5025738;28;20049;-74
2021/09/23 00:27:10;;;;;;;3.28;1.48;;;;;;;14.24;68.63;101194.41;5015550;28;20039;-75
2021/09/23 00:29:36;;;;;;;2.35;1.38;;;;;;;14.18;68.98;101179.81;5009657;28;20034;-74
2021/09/23 00:32:02;;;;;;;1.30;1.20;;;;;;;14.12;68.72;101186.41;5024004;28;20029;-73
2021/09/23 00:34:28;;;;;;;0.93;0.90;;;;;;;14.07;68.82;101178.94;5011186;28;20056;-74
2021/09/23 00:36:53;;;;;;;1.75;1.60;;;;;;;14.07;69.11;101176.19;4993191;28;20022;-74
2021/09/23 00:39:21;;;;;;;4.53;1.60;;;;;;;14.05;68.72;101186.66;5005317;28;20109;-74
2021/09/23 00:41:47;;;;;;;1.40;1.27;;;;;;;14.04;69.20;101185.00;5025133;28;20037;-74
2021/09/23 00:44:15;;;;;;;1.30;1.20;;;;;;;13.98;68.97;101188.84;4990507;28;20155;-73
2021/09/23 00:46:41;;;;;;;1.65;1.40;;;;;;;13.94;68.87;101185.81;5004620;28;20030;-74
2021/09/23 00:49:06;;;;;;;1.20;1.20;;;;;;;13.93;69.17;101180.56;4988750;28;20517;-71
2021/09/23 00:51:32;;;;;;;2.05;1.60;;;;;;;13.89;69.43;101187.72;4963633;28;20078;-75
2021/09/23 00:53:57;;;;;;;0.80;0.80;;;;;;;13.87;69.39;101178.91;4986500;28;20045;-74
2021/09/23 00:56:23;;;;;;;1.33;1.33;;;;;;;13.85;69.36;101175.59;4969703;28;20031;-74
2021/09/23 00:58:48;;;;;;;1.30;1.20;;;;;;;13.86;69.40;101166.25;4982878;28;20039;-74
2021/09/23 01:01:14;;;;;;;1.63;1.52;;;;;;;13.87;69.46;101162.41;4983501;28;20481;-74
2021/09/23 01:03:39;;;;;;;1.63;1.42;;;;;;;13.87;69.30;101173.41;4978227;28;20023;-74
2021/09/23 01:06:05;;;;;;;1.80;1.67;;;;;;;13.85;69.59;101165.41;4976867;28;20039;-74
2021/09/23 01:08:30;;;;;;;0.80;0.80;;;;;;;13.87;69.11;101165.16;4965676;28;20039;-75
2021/09/23 01:10:56;;;;;;;1.23;1.05;;;;;;;13.89;69.12;101157.47;4987456;28;20062;-73
2021/09/23 01:13:22;;;;;;;1.23;1.13;;;;;;;13.97;69.46;101165.19;4980926;28;20031;-74
2021/09/23 01:15:48;;;;;;;1.20;1.10;;;;;;;13.98;69.41;101164.09;4985832;28;20086;-74
2021/09/23 01:18:14;;;;;;;1.35;1.25;;;;;;;14.00;68.95;101150.88;4988779;28;20099;-74
2021/09/23 01:20:44;;;;;;;1.30;1.20;;;;;;;14.01;69.04;101141.53;4971600;28;20116;-73
2021/09/23 01:23:09;;;;;;;1.33;1.33;;;;;;;14.05;68.97;101148.16;4982276;28;20093;-75
2021/09/23 01:25:35;;;;;;;1.42;1.35;;;;;;;14.07;69.48;101140.44;4974284;28;20038;-74
2021/09/23 01:28:00;;;;;;;1.17;1.17;;;;;;;14.11;68.81;101146.25;4983663;28;20041;-74
2021/09/23 01:30:25;;;;;;;2.58;1.67;;;;;;;14.16;68.98;101140.75;4982829;28;20034;-74
2021/09/23 01:32:51;;;;;;;1.50;1.40;;;;;;;14.16;69.62;101137.19;4985645;28;20027;-74
2021/09/23 01:35:17;;;;;;;1.85;1.75;;;;;;;14.20;69.34;101132.78;4981265;28;20884;-73
2021/09/23 01:37:43;;;;;;;1.52;1.42;;;;;;;14.20;69.06;101133.59;4984649;28;20099;-74
2021/09/23 01:40:10;;;;;;;1.27;1.27;;;;;;;14.24;69.12;101128.41;4977255;28;20049;-75
2021/09/23 01:42:36;;;;;;;1.50;1.40;;;;;;;14.25;69.18;101124.53;4985171;28;20023;-73
2021/09/23 01:45:04;;;;;;;1.80;1.70;;;;;;;14.26;69.58;101124.25;4977201;28;20046;-73
2021/09/23 01:47:29;;;;;;;1.48;1.38;;;;;;;14.25;69.72;101124.53;4982129;28;20089;-74
2021/09/23 01:49:55;;;;;;;2.28;1.63;;;;;;;14.25;69.77;101119.88;5011437;28;20053;-74
2021/09/23 01:52:20;;;;;;;1.40;1.30;;;;;;;14.24;69.54;101122.88;5015846;28;20124;-73
2021/09/23 01:54:48;;;;;;;2.10;1.52;;;;;;;14.29;69.46;101125.63;5021090;28;20101;-74
2021/09/23 01:57:15;;;;;;;1.63;1.52;;;;;;;14.29;69.49;101131.13;5020681;28;20042;-74
2021/09/23 01:59:40;;;;;;;1.10;1.00;;;;;;;14.30;69.54;101128.09;5005636;28;20032;-74
2021/09/23 02:02:06;;;;;;;1.42;1.27;;;;;;;14.29;69.50;101117.38;5007233;28;20006;-74
2021/09/23 02:04:31;;;;;;;2.97;1.33;;;;;;;14.29;70.20;101109.13;4989087;28;20120;-74
2021/09/23 02:06:57;;;;;;;1.48;1.38;;;;;;;14.28;70.16;101113.81;5022036;28;20038;-76
2021/09/23 02:09:22;;;;;;;0.95;0.95;;;;;;;14.32;70.36;101109.41;4993757;28;20026;-74
2021/09/23 02:11:48;;;;;;;1.35;1.27;;;;;;;14.32;70.32;101100.31;5000851;28;20058;-74
2021/09/23 02:14:13;;;;;;;1.20;1.20;;;;;;;14.34;70.01;101106.38;5023809;28;20025;-73
2021/09/23 02:16:39;;;;;;;1.08;1.08;;;;;;;14.34;70.00;101091.78;4985465;28;20026;-75
2021/09/23 02:19:04;;;;;;;3.33;1.33;;;;;;;14.32;70.05;101103.06;5004849;28;20380;-74
2021/09/23 02:21:30;;;;;;;1.17;1.08;;;;;;;14.29;70.31;101087.97;4983840;28;20085;-73
2021/09/23 02:23:56;;;;;;;1.33;1.23;;;;;;;14.36;69.76;101097.88;5014180;28;20026;-75
2021/09/23 02:26:21;;;;;;;1.27;1.17;;;;;;;14.36;69.85;101093.19;5009496;28;20045;-74
2021/09/23 02:28:47;;;;;;;1.38;1.17;;;;;;;14.36;69.93;101087.66;5000089;28;20036;-74
2021/09/23 02:31:12;;;;;;;1.27;1.17;;;;;;;14.32;70.43;101081.91;4969013;28;20602;-74
2021/09/23 02:33:38;;;;;;;1.35;0.90;;;;;;;14.39;70.11;101095.38;5007210;28;20040;-73
2021/09/23 02:36:03;;;;;;;1.10;1.00;;;;;;;14.41;69.94;101095.94;5015605;28;20057;-75
2021/09/23 02:38:30;;;;;;;1.45;1.35;;;;;;;14.40;69.88;101088.78;5001403;28;20022;-74
2021/09/23 02:40:55;;;;;;;2.00;0.88;;;;;;;14.41;69.75;101090.44;5005417;28;20260;-73
2021/09/23 02:43:21;;;;;;;3.80;0.88;;;;;;;14.41;70.09;101084.09;5018005;28;20041;-74
2021/09/23 02:45:47;;;;;;;1.00;0.60;;;;;;;14.44;70.33;101092.63;5005529;28;20042;-75
2021/09/23 02:48:12;;;;;;;0.98;0.98;;;;;;;14.46;69.61;101090.41;5015336;28;20033;-74
2021/09/23 02:50:38;;;;;;;1.58;1.15;;;;;;;14.47;69.73;101094.81;5027611;28;20049;-73
2021/09/23 02:53:03;;;;;;;0.90;0.80;;;;;;;14.49;69.78;101106.38;5004353;28;20038;-75
2021/09/23 02:55:29;;;;;;;0.80;0.80;;;;;;;14.52;69.34;101107.75;5000904;28;20072;-74
2021/09/23 02:57:54;;;;;;;0.80;0.80;;;;;;;14.50;69.52;101104.47;5002953;28;20033;-74
2021/09/23 03:00:20;;;;;;;1.00;0.90;;;;;;;14.49;69.77;101098.13;5018950;28;20018;-74
2021/09/23 03:02:46;;;;;;;0.95;0.50;;;;;;;14.53;69.77;101097.56;5002989;28;20041;-75
2021/09/23 03:05:11;;;;;;;3.92;0.60;;;;;;;14.53;69.85;101100.31;5003320;28;20476;-74
2021/09/23 03:07:37;;;;;;;0.88;0.88;;;;;;;14.54;69.49;101090.97;5021326;28;20029;-74
2021/09/23 03:10:04;;;;;;;1.30;1.08;;;;;;;14.54;69.58;101090.97;5013018;28;20376;-74
2021/09/23 03:12:30;;;;;;;0.60;0.60;;;;;;;14.55;69.05;101084.38;5003174;28;20022;-74
2021/09/23 03:14:56;;;;;;;1.58;0.65;;;;;;;14.53;69.02;101075.53;5011301;28;20028;-74
2021/09/23 03:17:21;;;;;;;1.00;0.73;;;;;;;14.58;69.43;101079.13;4981107;28;20045;-75
2021/09/23 03:19:47;;;;;;;1.10;1.00;;;;;;;14.57;69.38;101082.16;4982517;28;20559;-74
2021/09/23 03:22:16;;;;;;;0.70;0.70;;;;;;;14.60;69.88;101076.09;4979417;28;20073;-74
2021/09/23 03:24:42;;;;;;;0.77;0.77;;;;;;;14.58;69.22;101067.31;5001253;28;20396;-76
2021/09/23 03:27:07;;;;;;;0.52;0.52;;;;;;;14.57;69.43;101049.13;5019908;28;20021;-75
2021/09/23 03:29:33;;;;;;;2.53;0.80;;;;;;;14.58;70.01;101048.03;5004577;28;20045;-75
2021/09/23 03:31:58;;;;;;;1.20;0.70;;;;;;;14.58;69.75;101039.78;5021214;28;20098;-74
2021/09/23 03:34:24;;;;;;;0.50;0.50;;;;;;;14.62;69.59;101043.66;4995883;28;20045;-74
2021/09/23 03:36:49;;;;;;;0.47;0.47;;;;;;;14.64;69.50;101046.94;5000382;28;20109;-74
2021/09/23 03:39:15;;;;;;;1.02;0.50;;;;;;;14.68;69.37;101041.72;5019288;28;20057;-74
2021/09/23 03:41:40;;;;;;;0.50;0.40;;;;;;;14.70;69.39;101037.56;5002444;28;20034;-74
2021/09/23 03:44:06;;;;;;;0.65;0.60;;;;;;;14.71;69.81;101030.97;5018261;28;20037;-74
2021/09/23 03:46:33;;;;;;;0.50;0.47;;;;;;;14.72;69.76;101024.38;5001309;28;20053;-73
2021/09/23 03:48:58;;;;;;;0.35;0.30;;;;;;;14.74;69.65;101013.88;5029301;28;20065;-73
2021/09/23 03:51:24;;;;;;;1.25;0.47;;;;;;;14.73;69.49;101014.16;5006367;28;20057;-74
2021/09/23 03:53:52;;;;;;;0.40;0.40;;;;;;;14.66;68.93;101011.72;5019609;28;20053;-74
2021/09/23 03:56:18;;;;;;;1.20;0.50;;;;;;;14.63;69.58;101010.34;5004623;28;20041;-75
2021/09/23 03:58:43;;;;;;;0.50;0.50;;;;;;;14.49;69.29;100999.06;5020323;28;20022;-73
2021/09/23 04:01:09;;;;;;;0.43;0.43;;;;;;;14.41;69.35;101002.38;5021351;28;20034;-74
2021/09/23 04:03:35;;;;;;;0.57;0.50;;;;;;;14.28;69.71;101005.69;5021181;28;20026;-73
2021/09/23 04:06:01;;;;;;;0.30;0.30;;;;;;;14.19;69.33;101010.09;5018879;28;20050;-72
2021/09/23 04:08:27;;;;;;;0.30;0.30;;;;;;;14.09;69.46;101000.75;5007115;28;20026;-72
2021/09/23 04:10:52;;;;;;;0.65;0.50;;;;;;;13.99;70.03;100997.19;4992817;28;20256;-75
2021/09/23 04:13:20;;;;;;;0.38;0.38;;;;;;;13.86;70.82;100987.56;4985781;28;20471;-75
2021/09/23 04:15:49;;;;;;;0.57;0.55;;;;;;;13.83;70.46;100993.59;5024254;28;20029;-76
2021/09/23 04:18:20;;;;;;;0.60;0.60;;;;;;;13.73;71.00;100987.00;5007867;28;20029;-77
2021/09/23 04:20:49;;;;;;;0.38;0.20;;;;;;;13.65;70.86;100979.28;5009185;28;20026;-77
2021/09/23 04:23:15;;;;;;;0.80;0.50;;;;;;;13.59;71.41;100980.38;4995840;28;20030;-76
2021/09/23 04:25:45;;;;;;;0.30;0.30;;;;;;;13.60;71.82;100982.03;5010781;28;20037;-78
2021/09/23 04:28:11;;;;;;;1.17;0.30;;;;;;;13.60;72.02;100976.53;4979552;28;20098;-76
2021/09/23 04:30:37;;;;;;;2.35;0.20;;;;;;;13.54;71.64;100972.16;5008884;28;20100;-78
2021/09/23 04:33:05;;;;;;;0.90;0.40;;;;;;;13.44;72.63;100961.97;4992939;28;20056;-77
2021/09/23 04:35:31;;;;;;;0.47;0.30;;;;;;;13.39;72.64;100960.03;4975683;28;20030;-76
2021/09/23 04:37:57;;;;;;;0.73;0.35;;;;;;;13.38;72.87;100958.38;5013804;28;20026;-78
2021/09/23 04:40:30;;;;;;;0.82;0.40;;;;;;;13.46;73.10;100969.94;5026418;28;20678;-77
2021/09/23 04:43:03;;;;;;;0.57;0.40;;;;;;;13.40;72.68;100983.66;5024860;28;20026;-76
2021/09/23 04:45:36;;;;;;;0.38;0.38;;;;;;;13.41;73.05;100985.31;5006198;28;20109;-83
2021/09/23 04:48:11;;;;;;;;;;;;;;;;;;;;;
2021/09/23 04:50:37;;;;;;;0.20;0.20;;;;;;;13.25;73.19;100964.38;5026118;28;20068;-83
2021/09/23 04:53:23;;;;;;;0.25;0.25;;;;;;;13.30;73.21;100982.78;5010630;28;20026;-82
2021/09/23 04:55:53;;;;;;;0.30;0.30;;;;;;;13.24;72.66;100980.03;5020124;28;20019;-82
2021/09/23 04:59:30;;;;;;;;;;;;;;;;;;;;;
2021/09/23 05:02:01;;;;;;;0.43;0.30;;;;;;;13.18;72.60;100977.53;5022904;28;20098;-79
2021/09/23 05:04:27;;;;;;;0.30;0.20;;;;;;;13.25;73.01;100997.31;5005912;28;20022;-78
2021/09/23 05:07:00;;;;;;;0.30;0.30;;;;;;;13.15;73.14;100976.13;5005854;28;20032;-78
2021/09/23 05:09:33;;;;;;;0.28;0.20;;;;;;;13.26;73.74;100988.81;5005052;28;20058;-79
2021/09/23 05:11:59;;;;;;;0.30;0.30;;;;;;;13.20;73.42;100967.09;4991566;28;20109;-77
2021/09/23 05:14:32;;;;;;;0.40;0.40;;;;;;;13.25;73.75;100980.84;5004893;28;20045;-78
2021/09/23 05:17:00;;;;;;;0.40;0.40;;;;;;;13.27;73.64;100986.88;5001220;28;20030;-80
2021/09/23 05:19:25;;;;;;;0.45;0.40;;;;;;;13.14;73.73;100969.00;5008407;28;20026;-82
2021/09/23 05:22:11;;;;;;;0.52;0.40;;;;;;;13.21;74.14;100985.22;5010583;28;20022;-82
2021/09/23 05:24:47;;;;;;;;;;;;;;;;;;;;;
2021/09/23 05:27:15;;;;;;;1.38;0.25;;;;;;;13.01;74.40;100974.97;5025450;28;20090;-78
2021/09/23 05:29:43;;;;;;;0.32;0.32;;;;;;;12.98;74.40;100976.38;4988313;28;20037;-77
2021/09/23 05:32:27;;;;;;;1.10;0.80;;;;;;;12.93;74.42;100985.38;5029805;28;20114;-86
2021/09/23 05:34:54;;;;;;;0.40;0.40;;;;;;;12.78;74.50;100970.78;4994198;28;20026;-89
2021/09/23 05:37:47;;;;;;;1.25;0.85;;;;;;;12.72;74.76;100979.00;5014082;28;20117;-88
2021/09/23 05:41:02;;;;;;;0.60;0.60;;;;;;;12.75;74.96;101000.41;5027462;28;20057;-84
2021/09/23 05:43:33;;;;;;;3.60;0.65;;;;;;;12.65;74.93;100983.88;5005791;28;20037;-83
2021/09/23 05:46:21;;;;;;;0.80;0.80;;;;;;;12.69;75.37;100985.00;4982561;28;20023;-85
2021/09/23 05:49:05;;;;;;;0.40;0.40;;;;;;;12.47;75.43;100956.91;4999461;28;20045;-81
2021/09/23 05:52:16;;;;;;;2.25;0.60;;;;;;;12.47;75.20;100965.13;5037581;22;20078;-83
2021/09/23 05:54:56;;;;;;;1.25;0.40;;;;;;;12.53;76.05;100992.34;5095933;23;20039;-84
2021/09/23 05:57:32;;;;;;;0.57;0.35;;;;;;;12.43;76.07;100972.25;4959890;28;20051;-84
2021/09/23 06:00:05;;;;;;;0.20;0.20;;;;;;;12.46;76.20;100979.94;4989793;28;20030;-85
2021/09/23 06:02:51;;;;;;;0.73;0.50;;;;;;;12.45;75.46;100978.28;4987227;28;20085;-83
2021/09/23 06:05:26;;;;;;;0.52;0.43;;;;;;;12.47;76.30;100976.94;4986171;28;20052;-83
2021/09/23 06:08:31;;;;;;;;;;;;;;;;;;;;;
2021/09/23 06:11:09;;;;;;;0.50;0.50;;;;;;;12.47;75.88;100962.38;4987269;28;20041;-80
2021/09/23 06:13:35;;;;;;;1.10;0.30;;;;;;;12.43;76.00;100964.03;4984838;28;20431;-77
2021/09/23 06:16:03;;;;;;;2.47;1.17;;;;;;;12.57;76.10;100989.88;4970436;28;20031;-76
2021/09/23 06:18:38;;;;;;;0.43;0.43;;;;;;;12.57;75.75;100970.66;4982624;28;20057;-79
2021/09/23 06:21:11;;;;;;;0.90;0.50;;;;;;;12.85;75.95;100990.56;4975130;28;20078;-78
2021/09/23 06:23:47;;;;;;;0.35;0.30;;;;;;;12.93;76.47;100973.59;4986747;28;20299;-79
2021/09/23 06:26:23;;;;;;;;;;;;;;;;;;;;;
2021/09/23 06:28:59;;;;;;;0.68;0.57;;;;;;;13.30;75.34;100983.59;4975157;28;20038;-76
2021/09/23 06:31:24;;;;;;;0.30;0.30;;;;;;;13.46;75.25;100981.72;4984694;28;20384;-77
2021/09/23 06:33:57;;;;;;;2.03;0.38;;;;;;;13.50;75.48;100968.28;4970867;28;20023;-78
2021/09/23 06:36:23;;;;;;;0.68;0.57;;;;;;;13.58;74.59;100974.06;4996108;28;20023;-79
2021/09/23 06:38:56;;;;;;;0.20;0.20;;;;;;;13.72;75.28;100974.34;4985785;28;20038;-77
2021/09/23 06:41:28;;;;;;;1.55;0.50;;;;;;;13.83;74.66;100971.59;4989574;28;20032;-76
2021/09/23 06:43:56;;;;;;;1.15;0.40;;;;;;;13.95;73.93;100977.66;4984495;28;20104;-77
2021/09/23 06:46:22;;;;;;;0.30;0.30;;;;;;;14.08;73.74;100971.59;4978689;28;20378;-77
2021/09/23 06:48:58;;;;;;;0.25;0.25;;;;;;;14.15;73.48;100965.84;4995571;28;20089;-76
2021/09/23 06:51:24;;;;;;;3.08;0.95;;;;;;;14.21;72.97;100956.47;4955777;28;20034;-77
2021/09/23 06:53:49;;;;;;;0.73;0.50;;;;;;;14.30;72.70;100963.03;4992032;28;20037;-78
2021/09/23 06:56:17;;;;;;;3.85;0.50;;;;;;;14.34;72.81;100963.34;4995910;28;20046;-77
2021/09/23 06:58:43;;;;;;;1.17;0.77;;;;;;;14.36;72.10;100955.59;4992324;28;20060;-75
2021/09/23 07:01:11;;;;;;;3.47;0.45;;;;;;;14.39;72.61;100948.72;4982973;28;20138;-73
2021/09/23 07:03:37;;;;;;;1.63;0.55;;;;;;;14.53;72.44;100954.47;4960647;28;20027;-75
2021/09/23 07:06:12;;;;;;;;;;;;;;;;;;;;;
2021/09/23 07:08:40;;;;;;;0.57;0.30;;;;;;;14.78;71.84;100956.34;4981102;28;20090;-74
2021/09/23 07:11:06;;;;;;;0.55;0.52;;;;;;;14.84;71.33;100953.28;4980458;28;20046;-72
2021/09/23 07:13:31;;;;;;;0.65;0.30;;;;;;;14.98;71.04;100949.91;4981392;28;20022;-73
2021/09/23 07:19:38;;;;;;;2.58;0.30;;;;;;;15.23;70.32;100968.25;4903427;29;20037;-73
2021/09/23 07:22:13;;;;;;;1.10;0.40;;;;;;;15.18;69.66;100947.03;4871716;29;20049;-73
2021/09/23 07:24:39;;;;;;;1.55;0.30;;;;;;;15.35;69.69;100965.16;4899338;29;20041;-73
2021/09/23 07:27:36;;;;;;;1.45;1.02;;;;;;;15.31;69.64;100931.00;4886341;29;20041;-74
2021/09/23 07:30:02;;;;;;;0.50;0.40;;;;;;;15.53;68.77;100967.22;4914895;28;20132;-74
2021/09/23 07:32:36;;;;;;;0.90;0.30;;;;;;;15.57;68.78;100955.66;4973441;28;20030;-73
2021/09/23 07:35:02;;;;;;;0.88;0.47;;;;;;;15.69;68.85;100964.38;4981000;28;20026;-72
2021/09/23 07:37:43;;;;;;;2.75;0.63;;;;;;;15.79;68.66;100966.25;4982061;28;20055;-75
2021/09/23 07:40:32;;;;;;;1.23;0.45;;;;;;;15.71;67.89;100946.44;4984491;28;20042;-74
2021/09/23 07:43:29;;;;;;;3.25;0.50;;;;;;;15.75;68.27;100949.41;4971260;28;20043;-74
2021/09/23 07:46:38;;;;;;;0.60;0.45;;;;;;;15.87;68.11;100951.84;4982954;28;20038;-73
2021/09/23 07:49:35;;;;;;;0.85;0.20;;;;;;;16.05;68.25;100950.31;4981543;28;20085;-73
2021/09/23 07:52:11;;;;;;;;;;;;;;;;;;;;;
2021/09/23 07:54:55;;;;;;;5.10;0.50;;;;;;;16.37;67.59;100951.66;4983701;28;20137;-72
2021/09/23 07:57:55;;;;;;;1.38;0.28;;;;;;;16.49;66.77;100943.78;4970064;28;20090;-72
2021/09/23 08:00:32;;;;;;;0.50;0.30;;;;;;;16.60;66.64;100938.16;4976201;28;20042;-74
2021/09/23 08:03:24;;;;;;;0.88;0.40;;;;;;;16.83;66.01;100942.00;4967541;28;20031;-76
2021/09/23 08:06:53;;;;;;;;;;;;;;;;;;;;;
2021/09/23 08:12:39;;;;;;;;;;;;;;;;;;;;;
2021/09/23 08:15:13;;;;;;;1.52;0.57;;;;;;;17.59;64.71;100956.69;4981709;28;20078;-74
2021/09/23 08:17:39;;;;;;;0.88;0.30;;;;;;;17.85;63.99;100967.38;4968859;28;20118;-73
2021/09/23 08:20:07;;;;;;;0.82;0.30;;;;;;;17.99;63.37;100955.53;4981067;28;20129;-74
2021/09/23 08:22:36;;;;;;;0.32;0.30;;;;;;;18.22;63.16;100960.09;4989175;28;20560;-75
2021/09/23 08:25:11;;;;;;;0.45;0.28;;;;;;;18.53;62.68;100969.78;4989044;28;20037;-75
2021/09/23 08:27:39;;;;;;;2.47;0.60;;;;;;;18.62;62.16;100954.94;4984369;28;20058;-73
2021/09/23 08:30:05;;;;;;;1.65;0.32;;;;;;;18.56;60.98;100970.00;4984404;28;20031;-74
2021/09/23 08:32:32;;;;;;;2.38;0.40;;;;;;;18.53;61.33;100965.09;4989671;28;20031;-75
2021/09/23 08:34:57;;;;;;;0.82;0.30;;;;;;;18.65;61.89;100961.81;4990400;28;20030;-75
2021/09/23 08:37:26;;;;;;;1.02;0.55;;;;;;;19.21;62.03;100961.78;4997772;28;20031;-75
2021/09/23 08:39:53;;;;;;;2.45;0.43;;;;;;;20.00;60.22;100966.03;4986768;28;20019;-75
2021/09/23 08:42:27;;;;;;;1.35;0.30;;;;;;;20.35;57.99;100961.47;4969266;28;20046;-74
2021/09/23 08:45:02;;;;;;;1.33;0.38;;;;;;;20.48;57.05;100964.50;4974223;28;20019;-75
2021/09/23 08:47:35;;;;;;;5.65;0.55;;;;;;;20.47;56.64;100968.41;4985152;28;20034;-73
2021/09/23 08:50:09;;;;;;;1.00;0.55;;;;;;;20.51;57.09;100980.50;5013385;28;20042;-74
2021/09/23 08:52:34;;;;;;;2.55;0.75;;;;;;;20.30;56.10;100969.97;4984879;28;20058;-74
2021/09/23 08:55:02;;;;;;;0.85;0.30;;;;;;;20.29;56.55;100973.88;4991712;28;20057;-74
2021/09/23 08:57:33;;;;;;;5.57;0.40;;;;;;;20.34;57.09;100970.13;4958681;28;20074;-74
2021/09/23 09:00:08;;;;;;;0.60;0.38;;;;;;;20.45;56.92;100970.69;4965826;28;20034;-74
2021/09/23 09:02:34;;;;;;;0.50;0.47;;;;;;;20.45;56.98;100977.06;5016710;28;20037;-74
2021/09/23 09:04:59;;;;;;;2.97;0.40;;;;;;;20.44;56.51;100971.81;4983864;28;20022;-73
2021/09/23 09:07:31;;;;;;;1.92;0.40;;;;;;;20.57;56.71;100968.13;4989241;28;20030;-74
2021/09/23 09:10:11;;;;;;;3.88;1.13;;;;;;;20.64;56.27;100976.81;4984653;28;20050;-74
2021/09/23 09:12:39;;;;;;;1.40;0.45;;;;;;;20.59;55.75;100988.09;4983531;28;20022;-74
2021/09/23 09:15:17;;;;;;;;;;;;;;;;;;;;;
2021/09/23 09:17:43;;;;;;;1.63;0.52;;;;;;;20.55;56.01;100976.78;4979016;28;20116;-75
2021/09/23 09:20:11;;;;;;;1.80;0.73;;;;;;;20.63;56.20;100989.06;4945353;28;20456;-73
2021/09/23 09:22:37;;;;;;;4.25;1.15;;;;;;;20.63;56.03;100983.50;4980127;28;20026;-74
2021/09/23 09:25:13;;;;;;;2.83;0.93;;;;;;;20.63;56.12;100989.06;4976468;28;20070;-73
2021/09/23 09:27:43;;;;;;;0.30;0.15;;;;;;;20.56;56.57;100995.09;4986130;28;20019;-71
2021/09/23 09:30:18;;;;;;;3.92;0.50;;;;;;;20.67;56.10;100983.72;4982978;28;20031;-73
2021/09/23 09:32:48;;;;;;;2.05;0.52;;;;;;;20.67;56.07;100989.28;4982702;28;20029;-74
2021/09/23 09:35:26;;;;;;;6.10;0.70;;;;;;;20.71;56.50;100990.28;5000307;28;20477;-74
2021/09/23 09:37:57;;;;;;;1.40;0.50;;;;;;;20.84;56.33;100988.53;4985436;28;20133;-72
2021/09/23 09:40:26;;;;;;;0.93;0.60;;;;;;;20.92;56.11;100977.44;4970901;28;20129;-72
2021/09/23 09:42:55;;;;;;;1.65;0.65;;;;;;;21.23;55.74;100973.75;4984823;28;20031;-73
2021/09/23 09:45:25;;;;;;;0.73;0.45;;;;;;;21.52;55.37;100990.97;4984341;28;20022;-73
2021/09/23 09:47:54;;;;;;;1.08;0.40;;;;;;;22.16;55.00;100986.66;4989914;28;20602;-74
2021/09/23 09:50:30;;;;;;;2.22;0.20;;;;;;;22.91;51.61;100983.44;4987861;28;20484;-73
2021/09/23 09:53:03;;;;;;;1.08;0.50;;;;;;;23.66;49.72;100982.78;4979415;28;20093;-73
2021/09/23 09:55:39;;;;;;;0.95;0.30;;;;;;;24.24;49.09;100968.94;4984598;28;20109;-74
2021/09/23 09:58:25;;;;;;;0.40;0.20;;;;;;;25.20;46.04;100978.88;4997702;28;20135;-73
2021/09/23 10:01:00;;;;;;;0.40;0.22;;;;;;;25.96;45.01;100976.31;4980926;28;20038;-74
2021/09/23 10:03:27;;;;;;;2.08;0.43;;;;;;;26.27;43.13;100974.78;4971613;28;20379;-74
2021/09/23 10:05:57;;;;;;;0.75;0.30;;;;;;;26.88;43.48;100975.50;4981107;28;20027;-74
2021/09/23 10:08:37;;;;;;;2.33;0.45;;;;;;;27.78;41.97;100959.81;4996096;28;20042;-74
2021/09/23 10:11:06;;;;;;;0.43;0.20;;;;;;;28.50;39.96;100975.22;4984960;28;20108;-74
2021/09/23 10:13:37;;;;;;;3.13;0.30;;;;;;;28.20;38.87;100975.91;5003117;28;20057;-74
2021/09/23 11:37:10;;;;;;;0.85;0.85;;;;;;;22.61;53.24;100919.31;4991784;28;20077;-72
2021/09/23 11:39:35;;;;;;;0.75;0.50;;;;;;;22.85;52.65;100907.53;4981537;28;20034;-75
2021/09/23 11:42:07;;;;;;;0.95;0.70;;;;;;;23.32;51.86;100909.38;4991108;28;20059;-73
2021/09/23 11:44:32;;;;;;;4.15;0.77;;;;;;;23.72;50.33;100906.03;4985138;28;20034;-72
2021/09/23 11:46:58;;;;;;;1.15;0.60;;;;;;;23.77;49.92;100903.03;4981064;28;20045;-73
2021/09/23 11:49:24;;;;;;;3.30;0.85;;;;;;;23.88;49.69;100904.25;4973028;28;20042;-73
2021/09/23 11:51:50;;;;;;;4.03;0.40;;;;;;;24.41;49.00;100881.25;4996387;28;20025;-73
2021/09/23 11:54:23;;;;;;;1.33;0.60;;;;;;;25.19;47.68;100887.69;4970553;28;20054;-73
2021/09/23 11:56:49;;;;;;;0.90;0.70;;;;;;;25.60;46.15;100882.91;5001454;28;20027;-73
2021/09/23 11:59:30;;;;;;;0.60;0.43;;;;;;;26.37;45.62;100877.28;4999340;28;20030;-73
2021/09/23 12:02:03;;;;;;;1.15;0.30;;;;;;;27.22;45.02;100888.88;4999974;28;20037;-72
2021/09/23 12:04:34;;;;;;;0.35;0.30;;;;;;;28.52;42.58;100891.28;4992063;28;20064;-72
2021/09/23 12:07:07;;;;;;;0.60;0.60;;;;;;;29.07;38.98;100886.06;4993737;28;20441;-74
2021/09/23 12:09:33;;;;;;;1.42;0.63;;;;;;;29.10;39.12;100892.13;4941924;28;20038;-73
2021/09/23 12:12:05;;;;;;;1.42;0.68;;;;;;;28.75;38.62;100890.44;4978926;28;20042;-73
2021/09/23 12:14:33;;;;;;;0.85;0.50;;;;;;;28.44;39.90;100890.34;4990568;28;20050;-73
2021/09/23 12:17:02;;;;;;;1.75;0.40;;;;;;;28.36;39.48;100895.03;4989995;28;20094;-71
2021/09/23 12:19:29;;;;;;;0.43;0.40;;;;;;;27.95;39.83;100877.03;4993149;28;20030;-73
2021/09/23 12:22:00;;;;;;;0.93;0.30;;;;;;;27.79;40.61;100877.97;4984213;28;20026;-73
2021/09/23 12:24:39;;;;;;;1.05;0.55;;;;;;;27.69;40.89;100881.41;5001062;28;20117;-70
2021/09/23 12:27:06;;;;;;;0.22;0.20;;;;;;;27.66;41.16;100885.75;5000725;28;20030;-72
2021/09/23 12:29:32;;;;;;;0.20;0.20;;;;;;;28.06;40.26;100886.50;5001630;28;20045;-72
2021/09/23 12:32:07;;;;;;;0.20;0.20;;;;;;;28.16;40.48;100880.25;4996672;28;20032;-73
2021/09/23 12:34:44;;;;;;;0.25;0.20;;;;;;;28.05;40.36;100876.44;4983400;28;20030;-73
2021/09/23 12:37:10;;;;;;;0.40;0.30;;;;;;;27.63;40.80;100882.88;4980546;28;20106;-73
2021/09/23 12:39:43;;;;;;;2.20;0.40;;;;;;;27.81;41.16;100878.41;4998382;28;20037;-73
2021/09/23 12:42:14;;;;;;;0.38;0.32;;;;;;;28.15;40.63;100869.38;5003576;28;20077;-72
2021/09/23 12:45:00;;;;;;;0.50;0.30;;;;;;;28.35;40.79;100870.91;4996831;28;20445;-73
2021/09/23 12:47:27;;;;;;;0.95;0.30;;;;;;;28.33;40.60;100864.88;4985808;28;20041;-73
2021/09/23 12:49:52;;;;;;;0.70;0.20;;;;;;;28.31;40.66;100858.00;4951822;28;20037;-75
2021/09/23 12:52:19;;;;;;;4.57;0.35;;;;;;;28.43;40.16;100859.78;5004527;28;20022;-75
2021/09/23 12:54:58;;;;;;;1.30;0.30;;;;;;;28.26;40.17;100861.94;4984399;28;20102;-76
2021/09/23 12:57:27;;;;;;;1.25;0.30;;;;;;;27.81;41.10;100863.56;4979740;28;20035;-73
2021/09/23 13:00:08;;;;;;;0.20;0.20;;;;;;;27.27;42.22;100852.06;4994758;28;20053;-75
2021/09/23 13:02:42;;;;;;;0.22;0.20;;;;;;;26.97;43.00;100852.66;4979152;28;20106;-77
2021/09/23 13:05:18;;;;;;;0.10;0.10;;;;;;;26.91;42.73;100859.75;5001831;28;20040;-75
2021/09/23 13:07:59;;;;;;;1.20;0.57;;;;;;;26.36;44.36;100861.66;4980505;28;20054;-75
2021/09/23 13:10:43;;;;;;;;;;;;;;;;;;;;;
2021/09/23 13:13:14;;;;;;;0.43;0.28;;;;;;;25.52;46.64;100869.06;5001415;28;20081;-74
2021/09/23 13:15:42;;;;;;;0.40;0.28;;;;;;;25.06;47.68;100863.72;4987105;28;20043;-75
2021/09/23 13:18:20;;;;;;;0.52;0.52;;;;;;;24.90;48.39;100847.69;4986588;28;20369;-75
2021/09/23 13:20:54;;;;;;;4.10;0.75;;;;;;;25.01;48.90;100836.00;5002734;28;20018;-75
2021/09/23 13:23:35;;;;;;;0.95;0.25;;;;;;;25.81;47.80;100851.03;4988672;28;20071;-76
2021/09/23 13:26:03;;;;;;;0.30;0.22;;;;;;;26.42;45.19;100838.56;5005222;28;20041;-74